createdAt,value
2016-03-10T00:00:56.907Z,0
2016-03-10T00:01:56.894Z,0
2016-03-10T00:02:56.897Z,0
2016-03-10T00:03:56.899Z,0
2016-03-10T00:04:56.902Z,0
2016-03-10T00:05:56.942Z,0
2016-03-10T00:06:56.914Z,0
2016-03-10T00:07:56.947Z,0
2016-03-10T00:08:56.919Z,0
2016-03-10T00:09:56.937Z,0
2016-03-10T00:10:56.970Z,0
2016-03-10T00:11:56.942Z,0
2016-03-10T00:12:56.944Z,0
2016-03-10T00:13:56.947Z,0
2016-03-10T00:14:56.950Z,0
2016-03-10T00:15:56.969Z,0
2016-03-10T00:16:56.955Z,0
2016-03-10T00:17:56.975Z,0
2016-03-10T00:18:56.977Z,0
2016-03-10T00:19:56.995Z,0
2016-03-10T00:20:56.997Z,0
2016-03-10T00:21:57.000Z,0
2016-03-10T00:22:57.002Z,0
2016-03-10T00:23:57.006Z,0
2016-03-10T00:24:57.008Z,0
2016-03-10T00:25:57.011Z,0
2016-03-10T00:26:57.013Z,0
2016-03-10T00:27:57.016Z,0
2016-03-10T00:28:57.019Z,0
2016-03-10T00:29:57.021Z,0
2016-03-10T00:30:57.072Z,0
2016-03-10T00:31:57.048Z,0
2016-03-10T00:32:57.134Z,0
2016-03-10T00:33:57.058Z,0
2016-03-10T00:34:57.061Z,0
2016-03-10T00:35:56.923Z,0
2016-03-10T00:36:57.067Z,0
2016-03-10T00:37:57.076Z,0
2016-03-10T00:38:57.078Z,0
2016-03-10T00:39:57.081Z,0
2016-03-10T00:40:57.083Z,0
2016-03-10T00:41:57.087Z,0
2016-03-10T00:42:57.104Z,0
2016-03-10T00:43:57.092Z,0
2016-03-10T00:44:57.110Z,0
2016-03-10T00:45:57.223Z,0
2016-03-10T00:46:57.115Z,0
2016-03-10T00:47:57.150Z,0
2016-03-10T00:48:57.120Z,0
2016-03-10T00:49:57.123Z,0
2016-03-10T00:50:57.126Z,0
2016-03-10T00:51:57.129Z,0
2016-03-10T00:52:57.195Z,0
2016-03-10T00:53:57.150Z,0
2016-03-10T00:54:57.168Z,0
2016-03-10T00:55:57.155Z,0
2016-03-10T00:56:57.158Z,0
2016-03-10T00:57:57.207Z,0
2016-03-10T00:58:57.195Z,0
2016-03-10T00:59:57.166Z,0
2016-03-10T01:00:57.216Z,0
2016-03-10T01:01:57.187Z,0
2016-03-10T01:02:57.205Z,0
2016-03-10T01:03:57.192Z,0
2016-03-10T01:04:57.196Z,0
2016-03-10T01:05:57.229Z,0
2016-03-10T01:06:57.044Z,0
2016-03-10T01:07:57.234Z,0
2016-03-10T01:08:57.206Z,0
2016-03-10T01:09:57.224Z,0
2016-03-10T01:10:57.258Z,0
2016-03-10T01:11:57.229Z,0
2016-03-10T01:12:57.232Z,0
2016-03-10T01:13:57.079Z,0
2016-03-10T01:14:57.237Z,0
2016-03-10T01:15:57.271Z,0
2016-03-10T01:16:57.273Z,0
2016-03-10T01:17:57.276Z,0
2016-03-10T01:18:57.295Z,0
2016-03-10T01:19:57.267Z,0
2016-03-10T01:20:57.269Z,0
2016-03-10T01:21:57.272Z,0
2016-03-10T01:22:57.274Z,0
2016-03-10T01:23:57.293Z,0
2016-03-10T01:24:57.295Z,0
2016-03-10T01:25:57.298Z,0
2016-03-10T01:26:57.317Z,0
2016-03-10T01:27:57.304Z,0
2016-03-10T01:28:57.306Z,0
2016-03-10T01:29:57.309Z,0
2016-03-10T01:30:57.311Z,0
2016-03-10T01:31:57.346Z,0
2016-03-10T01:32:57.333Z,0
2016-03-10T01:33:57.336Z,0
2016-03-10T01:34:57.338Z,0
2016-03-10T01:35:57.340Z,0
2016-03-10T01:36:57.187Z,0
2016-03-10T01:37:57.362Z,0
2016-03-10T01:38:57.380Z,0
2016-03-10T01:39:57.351Z,0
2016-03-10T01:40:57.371Z,0
2016-03-10T01:41:57.373Z,0
2016-03-10T01:42:57.376Z,0
2016-03-10T01:43:57.393Z,0
2016-03-10T01:44:57.381Z,0
2016-03-10T01:45:57.398Z,0
2016-03-10T01:46:57.387Z,0
2016-03-10T01:47:57.389Z,0
2016-03-10T01:48:57.439Z,0
2016-03-10T01:49:57.409Z,0
2016-03-10T01:50:57.459Z,0
2016-03-10T01:51:57.415Z,0
2016-03-10T01:52:57.403Z,0
2016-03-10T01:53:57.436Z,0
2016-03-10T01:54:57.423Z,0
2016-03-10T01:55:57.442Z,0
2016-03-10T01:56:57.444Z,0
2016-03-10T01:57:57.447Z,0
2016-03-10T01:58:57.465Z,0
2016-03-10T01:59:57.468Z,0
2016-03-10T02:00:57.455Z,0
2016-03-10T02:01:57.488Z,0
2016-03-10T02:02:57.476Z,0
2016-03-10T02:03:57.479Z,0
2016-03-10T02:04:57.512Z,0
2016-03-10T02:05:57.485Z,0
2016-03-10T02:06:57.502Z,0
2016-03-10T02:07:57.505Z,0
2016-03-10T02:08:57.524Z,0
2016-03-10T02:09:57.511Z,0
2016-03-10T02:10:57.529Z,0
2016-03-10T02:11:57.547Z,0
2016-03-10T02:12:57.518Z,0
2016-03-10T02:13:57.568Z,0
2016-03-10T02:14:57.524Z,0
2016-03-10T02:15:57.542Z,0
2016-03-10T02:16:57.545Z,0
2016-03-10T02:17:57.578Z,0
2016-03-10T02:18:57.565Z,0
2016-03-10T02:19:57.537Z,0
2016-03-10T02:20:57.571Z,0
2016-03-10T02:21:57.558Z,0
2016-03-10T02:22:57.577Z,0
2016-03-10T02:23:57.564Z,0
2016-03-10T02:24:57.582Z,0
2016-03-10T02:25:57.584Z,0
2016-03-10T02:26:57.603Z,0
2016-03-10T02:27:57.589Z,0
2016-03-10T02:28:57.593Z,0
2016-03-10T02:29:57.627Z,0
2016-03-10T02:30:57.598Z,0
2016-03-10T02:31:57.616Z,0
2016-03-10T02:32:57.603Z,0
2016-03-10T02:33:57.622Z,0
2016-03-10T02:34:57.640Z,0
2016-03-10T02:35:57.611Z,0
2016-03-10T02:36:57.489Z,0
2016-03-10T02:37:57.633Z,0
2016-03-10T02:38:57.635Z,0
2016-03-10T02:39:57.638Z,0
2016-03-10T02:40:57.656Z,0
2016-03-10T02:41:57.659Z,0
2016-03-10T02:42:57.693Z,0
2016-03-10T02:43:57.665Z,0
2016-03-10T02:44:57.667Z,0
2016-03-10T02:45:57.670Z,0
2016-03-10T02:46:57.687Z,0
2016-03-10T02:47:57.691Z,0
2016-03-10T02:48:57.537Z,0
2016-03-10T02:49:57.681Z,0
2016-03-10T02:50:57.698Z,0
2016-03-10T02:51:57.718Z,0
2016-03-10T02:52:57.704Z,0
2016-03-10T02:53:57.723Z,0
2016-03-10T02:54:57.709Z,0
2016-03-10T02:55:57.728Z,0
2016-03-10T02:56:57.747Z,0
2016-03-10T02:57:57.718Z,0
2016-03-10T02:58:57.736Z,0
2016-03-10T02:59:57.738Z,0
2016-03-10T03:00:57.741Z,0
2016-03-10T03:01:57.728Z,0
2016-03-10T03:02:57.763Z,0
2016-03-10T03:03:57.749Z,0
2016-03-10T03:04:57.768Z,0
2016-03-10T03:05:57.786Z,0
2016-03-10T03:06:57.758Z,0
2016-03-10T03:07:57.776Z,0
2016-03-10T03:08:57.779Z,0
2016-03-10T03:09:57.796Z,0
2016-03-10T03:10:57.768Z,0
2016-03-10T03:11:57.630Z,0
2016-03-10T03:12:57.805Z,0
2016-03-10T03:13:57.792Z,0
2016-03-10T03:14:57.670Z,0
2016-03-10T03:15:57.798Z,0
2016-03-10T03:16:57.816Z,0
2016-03-10T03:17:57.865Z,0
2016-03-10T03:18:57.806Z,0
2016-03-10T03:19:57.840Z,0
2016-03-10T03:20:57.827Z,0
2016-03-10T03:21:57.829Z,0
2016-03-10T03:22:57.832Z,0
2016-03-10T03:23:57.850Z,0
2016-03-10T03:24:57.868Z,0
2016-03-10T03:25:57.840Z,0
2016-03-10T03:26:57.874Z,0
2016-03-10T03:27:57.845Z,0
2016-03-10T03:28:57.863Z,0
2016-03-10T03:29:57.881Z,0
2016-03-10T03:30:57.869Z,0
2016-03-10T03:31:57.872Z,0
2016-03-10T03:32:57.905Z,0
2016-03-10T03:33:57.892Z,0
2016-03-10T03:34:57.895Z,0
2016-03-10T03:35:57.898Z,0
2016-03-10T03:36:57.916Z,0
2016-03-10T03:37:57.902Z,0
2016-03-10T03:38:57.905Z,0
2016-03-10T03:39:57.924Z,0
2016-03-10T03:40:57.927Z,0
2016-03-10T03:41:57.945Z,0
2016-03-10T03:42:57.948Z,0
2016-03-10T03:43:57.934Z,0
2016-03-10T03:44:57.984Z,0
2016-03-10T03:45:57.940Z,0
2016-03-10T03:46:57.959Z,0
2016-03-10T03:47:57.945Z,0
2016-03-10T03:48:57.965Z,0
2016-03-10T03:49:57.951Z,0
2016-03-10T03:50:57.985Z,0
2016-03-10T03:51:57.972Z,0
2016-03-10T03:52:57.959Z,0
2016-03-10T03:53:58.009Z,0
2016-03-10T03:54:57.996Z,0
2016-03-10T03:55:57.998Z,0
2016-03-10T03:56:57.986Z,0
2016-03-10T03:57:58.003Z,0
2016-03-10T03:58:58.022Z,0
2016-03-10T03:59:58.025Z,0
2016-03-10T04:00:58.012Z,0
2016-03-10T04:01:58.030Z,0
2016-03-10T04:02:58.033Z,0
2016-03-10T04:03:58.052Z,0
2016-03-10T04:04:58.039Z,0
2016-03-10T04:05:58.025Z,0
2016-03-10T04:06:58.028Z,0
2016-03-10T04:07:58.030Z,0
2016-03-10T04:08:58.065Z,0
2016-03-10T04:09:58.036Z,0
2016-03-10T04:10:58.054Z,0
2016-03-10T04:11:58.041Z,0
2016-03-10T04:12:58.059Z,0
2016-03-10T04:13:58.079Z,0
2016-03-10T04:14:58.065Z,0
2016-03-10T04:15:58.177Z,0
2016-03-10T04:16:58.101Z,0
2016-03-10T04:17:58.074Z,0
2016-03-10T04:18:58.107Z,0
2016-03-10T04:19:58.079Z,0
2016-03-10T04:20:58.098Z,0
2016-03-10T04:21:58.101Z,0
2016-03-10T04:22:58.103Z,0
2016-03-10T04:23:58.137Z,0
2016-03-10T04:24:58.109Z,0
2016-03-10T04:25:58.126Z,0
2016-03-10T04:26:58.113Z,0
2016-03-10T04:27:58.131Z,0
2016-03-10T04:28:58.134Z,0
2016-03-10T04:29:58.153Z,0
2016-03-10T04:30:58.170Z,0
2016-03-10T04:31:58.173Z,0
2016-03-10T04:32:58.176Z,0
2016-03-10T04:33:58.148Z,0
2016-03-10T04:34:58.166Z,0
2016-03-10T04:35:58.168Z,0
2016-03-10T04:36:57.999Z,0
2016-03-10T04:37:58.189Z,0
2016-03-10T04:38:58.177Z,0
2016-03-10T04:39:58.194Z,0
2016-03-10T04:40:58.182Z,0
2016-03-10T04:41:58.184Z,0
2016-03-10T04:42:58.187Z,0
2016-03-10T04:43:58.190Z,0
2016-03-10T04:44:58.208Z,0
2016-03-10T04:45:58.226Z,0
2016-03-10T04:46:58.198Z,0
2016-03-10T04:47:58.248Z,0
2016-03-10T04:48:58.235Z,0
2016-03-10T04:49:58.221Z,0
2016-03-10T04:50:58.240Z,0
2016-03-10T04:51:58.258Z,0
2016-03-10T04:52:58.230Z,0
2016-03-10T04:53:58.248Z,0
2016-03-10T04:54:58.282Z,0
2016-03-10T04:55:58.237Z,0
2016-03-10T04:56:58.100Z,0
2016-03-10T04:57:58.258Z,0
2016-03-10T04:58:58.262Z,0
2016-03-10T04:59:58.295Z,0
2016-03-10T05:00:58.111Z,0
2016-03-10T05:01:58.300Z,0
2016-03-10T05:02:58.272Z,0
2016-03-10T05:03:58.291Z,0
2016-03-10T05:04:58.308Z,0
2016-03-10T05:05:58.296Z,0
2016-03-10T05:06:58.314Z,0
2016-03-10T05:07:58.302Z,0
2016-03-10T05:08:58.319Z,0
2016-03-10T05:09:58.307Z,0
2016-03-10T05:10:58.310Z,0
2016-03-10T05:11:58.344Z,0
2016-03-10T05:12:58.331Z,0
2016-03-10T05:13:58.318Z,0
2016-03-10T05:14:58.383Z,0
2016-03-10T05:15:58.338Z,0
2016-03-10T05:16:58.357Z,0
2016-03-10T05:17:58.344Z,0
2016-03-10T05:18:58.346Z,0
2016-03-10T05:19:58.349Z,0
2016-03-10T05:20:58.352Z,0
2016-03-10T05:21:58.370Z,0
2016-03-10T05:22:58.373Z,0
2016-03-10T05:23:58.360Z,0
2016-03-10T05:24:58.394Z,0
2016-03-10T05:25:58.381Z,0
2016-03-10T05:26:58.384Z,0
2016-03-10T05:27:58.387Z,0
2016-03-10T05:28:58.405Z,0
2016-03-10T05:29:58.439Z,4
2016-03-10T05:30:58.411Z,0
2016-03-10T05:31:58.428Z,0
2016-03-10T05:32:58.416Z,4
2016-03-10T05:33:58.418Z,4
2016-03-10T05:34:58.467Z,4
2016-03-10T05:35:58.424Z,4
2016-03-10T05:36:58.441Z,0
2016-03-10T05:37:58.429Z,4
2016-03-10T05:38:58.447Z,4
2016-03-10T05:39:58.449Z,4
2016-03-10T05:40:58.452Z,8
2016-03-10T05:41:58.471Z,4
2016-03-10T05:42:58.458Z,8
2016-03-10T05:43:58.461Z,8
2016-03-10T05:44:58.463Z,8
2016-03-10T05:45:58.466Z,8
2016-03-10T05:46:58.485Z,12
2016-03-10T05:47:58.472Z,16
2016-03-10T05:48:58.490Z,16
2016-03-10T05:49:58.493Z,16
2016-03-10T05:50:58.496Z,20
2016-03-10T05:51:58.498Z,24
2016-03-10T05:52:58.516Z,28
2016-03-10T05:53:58.503Z,28
2016-03-10T05:54:58.521Z,36
2016-03-10T05:55:58.524Z,40
2016-03-10T05:56:58.526Z,40
2016-03-10T05:57:58.514Z,44
2016-03-10T05:58:58.532Z,52
2016-03-10T05:59:58.534Z,52
2016-03-10T06:00:58.537Z,60
2016-03-10T06:01:58.539Z,64
2016-03-10T06:02:58.542Z,68
2016-03-10T06:03:58.545Z,76
2016-03-10T06:04:58.548Z,80
2016-03-10T06:05:58.393Z,88
2016-03-10T06:06:58.567Z,96
2016-03-10T06:07:58.570Z,100
2016-03-10T06:08:58.573Z,112
2016-03-10T06:09:58.576Z,120
2016-03-10T06:10:58.578Z,128
2016-03-10T06:11:58.580Z,140
2016-03-10T06:12:58.614Z,144
2016-03-10T06:13:58.617Z,156
2016-03-10T06:14:58.620Z,168
2016-03-10T06:16:12.716Z,180
2016-03-10T06:16:58.610Z,188
2016-03-10T06:17:58.628Z,196
2016-03-10T06:18:58.616Z,208
2016-03-10T06:19:58.618Z,216
2016-03-10T06:20:58.636Z,228
2016-03-10T06:21:58.623Z,240
2016-03-10T06:22:58.626Z,248
2016-03-10T06:23:58.629Z,264
2016-03-10T06:24:58.632Z,276
2016-03-10T06:25:58.649Z,284
2016-03-10T06:26:58.652Z,296
2016-03-10T06:27:58.654Z,312
2016-03-10T06:28:58.657Z,324
2016-03-10T06:29:58.660Z,332
2016-03-10T06:30:58.663Z,348
2016-03-10T06:31:58.697Z,360
2016-03-10T06:32:58.669Z,376
2016-03-10T06:33:58.703Z,388
2016-03-10T06:34:58.674Z,400
2016-03-10T06:35:58.692Z,416
2016-03-10T06:36:58.695Z,436
2016-03-10T06:37:58.697Z,452
2016-03-10T06:38:58.717Z,464
2016-03-10T06:39:58.719Z,476
2016-03-10T06:40:58.722Z,488
2016-03-10T06:41:58.724Z,500
2016-03-10T06:42:58.727Z,512
2016-03-10T06:43:58.730Z,524
2016-03-10T06:44:58.733Z,540
2016-03-10T06:45:58.781Z,552
2016-03-10T06:46:58.738Z,560
2016-03-10T06:47:58.756Z,576
2016-03-10T06:48:58.759Z,588
2016-03-10T06:49:58.746Z,600
2016-03-10T06:50:58.779Z,616
2016-03-10T06:51:58.752Z,628
2016-03-10T06:52:58.785Z,640
2016-03-10T06:53:58.772Z,652
2016-03-10T06:54:58.774Z,664
2016-03-10T06:55:58.793Z,676
2016-03-10T06:56:58.779Z,688
2016-03-10T06:57:58.814Z,700
2016-03-10T06:58:58.785Z,712
2016-03-10T06:59:58.804Z,724
2016-03-10T07:00:58.807Z,736
2016-03-10T07:01:58.810Z,748
2016-03-10T07:02:58.812Z,760
2016-03-10T07:03:58.815Z,776
2016-03-10T07:04:58.817Z,788
2016-03-10T07:05:58.820Z,800
2016-03-10T07:06:58.807Z,812
2016-03-10T07:07:58.841Z,820
2016-03-10T07:08:58.843Z,836
2016-03-10T07:09:58.845Z,848
2016-03-10T07:10:58.864Z,856
2016-03-10T07:11:58.851Z,872
2016-03-10T07:12:58.854Z,888
2016-03-10T07:13:58.856Z,908
2016-03-10T07:14:58.970Z,920
2016-03-10T07:15:58.862Z,936
2016-03-10T07:16:58.881Z,956
2016-03-10T07:17:58.899Z,972
2016-03-10T07:18:58.886Z,984
2016-03-10T07:19:58.904Z,996
2016-03-10T07:20:58.892Z,996
2016-03-10T07:21:58.925Z,1004
2016-03-10T07:22:58.897Z,1016
2016-03-10T07:23:58.915Z,1028
2016-03-10T07:24:58.933Z,1040
2016-03-10T07:25:58.936Z,1060
2016-03-10T07:26:58.923Z,1080
2016-03-10T07:27:58.957Z,1092
2016-03-10T07:28:58.929Z,1104
2016-03-10T07:29:58.932Z,1112
2016-03-10T07:30:58.949Z,1120
2016-03-10T07:31:58.937Z,1120
2016-03-10T07:32:58.970Z,1136
2016-03-10T07:33:58.958Z,1144
2016-03-10T07:34:58.945Z,1152
2016-03-10T07:35:58.963Z,1160
2016-03-10T07:36:58.965Z,1176
2016-03-10T07:37:59.000Z,1188
2016-03-10T07:38:58.971Z,1196
2016-03-10T07:39:59.005Z,1208
2016-03-10T07:40:58.976Z,1220
2016-03-10T07:41:58.995Z,1232
2016-03-10T07:42:59.014Z,1248
2016-03-10T07:43:59.000Z,1260
2016-03-10T07:44:59.019Z,1272
2016-03-10T07:45:59.022Z,1280
2016-03-10T07:46:59.019Z,1292
2016-03-10T07:47:59.014Z,1316
2016-03-10T07:48:59.026Z,1324
2016-03-10T07:49:59.007Z,1336
2016-03-10T07:50:59.035Z,1348
2016-03-10T07:51:59.018Z,1352
2016-03-10T07:52:59.019Z,1368
2016-03-10T07:53:59.019Z,1376
2016-03-10T07:54:59.004Z,1388
2016-03-10T07:55:59.005Z,1396
2016-03-10T07:56:59.037Z,1412
2016-03-10T07:57:59.227Z,1428
2016-03-10T07:58:59.072Z,1432
2016-03-10T07:59:59.043Z,1444
2016-03-10T08:00:59.060Z,1456
2016-03-10T08:01:59.047Z,1464
2016-03-10T08:02:59.034Z,1480
2016-03-10T08:03:59.052Z,1504
2016-03-10T08:04:59.054Z,1528
2016-03-10T08:05:59.057Z,1544
2016-03-10T08:06:59.059Z,1528
2016-03-10T08:07:59.092Z,1512
2016-03-10T08:08:59.079Z,1580
2016-03-10T08:09:59.067Z,1668
2016-03-10T08:10:59.132Z,1664
2016-03-10T08:11:59.087Z,1696
2016-03-10T08:12:59.090Z,1776
2016-03-10T08:13:59.014Z,1948
2016-03-10T08:14:59.112Z,4864
2016-03-10T08:15:59.114Z,8540
2016-03-10T08:16:59.101Z,9236
2016-03-10T08:17:59.136Z,9596
2016-03-10T08:18:59.122Z,9868
2016-03-10T08:19:59.141Z,9108
2016-03-10T08:20:59.143Z,9504
2016-03-10T08:21:59.147Z,10452
2016-03-10T08:22:59.149Z,11168
2016-03-10T08:23:59.167Z,11444
2016-03-10T08:24:59.216Z,12052
2016-03-10T08:25:59.188Z,12692
2016-03-10T08:26:59.207Z,13184
2016-03-10T08:27:59.349Z,13472
2016-03-10T08:28:59.305Z,14176
2016-03-10T08:29:59.246Z,14464
2016-03-10T08:30:59.233Z,14400
2016-03-10T08:31:59.251Z,13312
2016-03-10T08:32:59.301Z,9636
2016-03-10T08:33:59.288Z,6456
2016-03-10T08:34:59.321Z,5912
2016-03-10T08:35:59.293Z,5884
2016-03-10T08:36:59.311Z,5828
2016-03-10T08:37:59.330Z,5812
2016-03-10T08:38:59.332Z,5872
2016-03-10T08:39:59.351Z,5776
2016-03-10T08:40:59.354Z,5784
2016-03-10T08:41:59.372Z,5740
2016-03-10T08:42:59.375Z,5696
2016-03-10T08:43:59.409Z,5660
2016-03-10T08:44:59.412Z,5704
2016-03-10T08:45:59.429Z,8048
2016-03-10T08:46:59.431Z,12528
2016-03-10T08:47:59.466Z,16288
2016-03-10T08:48:59.453Z,16736
2016-03-10T08:49:59.471Z,16608
2016-03-10T08:50:59.489Z,16704
2016-03-10T08:51:59.477Z,16576
2016-03-10T08:52:59.527Z,16576
2016-03-10T08:53:59.498Z,16192
2016-03-10T08:54:59.532Z,15840
2016-03-10T08:55:59.535Z,16032
2016-03-10T08:56:59.553Z,16128
2016-03-10T08:57:59.571Z,16352
2016-03-10T08:58:59.588Z,16576
2016-03-10T08:59:59.576Z,16704
2016-03-10T09:00:59.594Z,16992
2016-03-10T09:01:59.613Z,16832
2016-03-10T09:02:59.615Z,16928
2016-03-10T09:03:59.650Z,17120
2016-03-10T09:04:59.637Z,17344
2016-03-10T09:05:59.655Z,17184
2016-03-10T09:06:59.653Z,17664
2016-03-10T09:07:59.688Z,17696
2016-03-10T09:08:59.691Z,17696
2016-03-10T09:09:59.708Z,17536
2016-03-10T09:10:59.727Z,17888
2016-03-10T09:11:59.730Z,18048
2016-03-10T09:12:59.749Z,18176
2016-03-10T09:13:59.797Z,18368
2016-03-10T09:14:59.768Z,18368
2016-03-10T09:15:59.803Z,17920
2016-03-10T09:16:59.790Z,17856
2016-03-10T09:17:59.824Z,18656
2016-03-10T09:18:59.826Z,18784
2016-03-10T09:19:59.829Z,18944
2016-03-10T09:20:59.879Z,18880
2016-03-10T09:21:59.709Z,19008
2016-03-10T09:22:59.885Z,18624
2016-03-10T09:23:59.903Z,18048
2016-03-10T09:24:59.905Z,11700
2016-03-10T09:25:59.939Z,4596
2016-03-10T09:26:59.942Z,2980
2016-03-10T09:27:59.945Z,2916
2016-03-10T09:28:59.995Z,2860
2016-03-10T09:29:59.982Z,2792
2016-03-10T09:30:59.984Z,2720
2016-03-10T09:31:59.986Z,2692
2016-03-10T09:33:00.005Z,2640
2016-03-10T09:34:00.039Z,2580
2016-03-10T09:35:00.025Z,2512
2016-03-10T09:36:00.044Z,2468
2016-03-10T09:37:00.047Z,2432
2016-03-10T09:38:00.050Z,2424
2016-03-10T09:39:00.083Z,2392
2016-03-10T09:40:00.072Z,2392
2016-03-10T09:41:00.089Z,2388
2016-03-10T09:42:00.092Z,2352
2016-03-10T09:43:00.157Z,2328
2016-03-10T09:44:00.128Z,2288
2016-03-10T09:45:00.116Z,2268
2016-03-10T09:46:00.133Z,2224
2016-03-10T09:47:00.136Z,2216
2016-03-10T09:48:00.139Z,2184
2016-03-10T09:49:00.141Z,2172
2016-03-10T09:50:00.160Z,2156
2016-03-10T09:51:00.152Z,2144
2016-03-10T09:52:00.187Z,2128
2016-03-10T09:53:00.189Z,2120
2016-03-10T09:54:00.191Z,2128
2016-03-10T09:55:00.210Z,2128
2016-03-10T09:56:00.212Z,2112
2016-03-10T09:57:00.215Z,2124
2016-03-10T09:58:00.218Z,2120
2016-03-10T09:59:00.237Z,2100
2016-03-10T10:00:00.239Z,2084
2016-03-10T10:01:00.241Z,2084
2016-03-10T10:02:00.245Z,2076
2016-03-10T10:03:00.247Z,2072
2016-03-10T10:04:00.250Z,2040
2016-03-10T10:05:00.283Z,2016
2016-03-10T10:06:00.270Z,2020
2016-03-10T10:07:00.289Z,2004
2016-03-10T10:08:00.291Z,2000
2016-03-10T10:09:00.278Z,2020
2016-03-10T10:10:00.313Z,2028
2016-03-10T10:11:00.299Z,2000
2016-03-10T10:12:00.333Z,1964
2016-03-10T10:13:00.321Z,1928
2016-03-10T10:14:00.323Z,1968
2016-03-10T10:15:00.341Z,1972
2016-03-10T10:16:00.328Z,1964
2016-03-10T10:17:00.332Z,1936
2016-03-10T10:18:00.365Z,1944
2016-03-10T10:19:00.368Z,1952
2016-03-10T10:20:00.371Z,1948
2016-03-10T10:21:00.357Z,1924
2016-03-10T10:22:00.392Z,1884
2016-03-10T10:23:00.426Z,1856
2016-03-10T10:24:00.382Z,1836
2016-03-10T10:25:00.446Z,1820
2016-03-10T10:26:00.417Z,1852
2016-03-10T10:27:00.405Z,1844
2016-03-10T10:28:00.408Z,1852
2016-03-10T10:29:00.411Z,1840
2016-03-10T10:30:00.414Z,1844
2016-03-10T10:31:00.431Z,1828
2016-03-10T10:32:00.465Z,1812
2016-03-10T10:33:00.437Z,1800
2016-03-10T10:34:00.470Z,1756
2016-03-10T10:35:00.458Z,1740
2016-03-10T10:36:00.476Z,1740
2016-03-10T10:37:00.463Z,1740
2016-03-10T10:38:00.481Z,1748
2016-03-10T10:39:00.531Z,1744
2016-03-10T10:40:00.502Z,1748
2016-03-10T10:41:00.505Z,1744
2016-03-10T10:42:00.492Z,1752
2016-03-10T10:43:00.526Z,1732
2016-03-10T10:44:00.529Z,1736
2016-03-10T10:45:00.500Z,1716
2016-03-10T10:46:00.518Z,1692
2016-03-10T10:47:00.538Z,1660
2016-03-10T10:48:00.540Z,1648
2016-03-10T10:49:00.543Z,1628
2016-03-10T10:50:00.545Z,1636
2016-03-10T10:51:00.579Z,1620
2016-03-10T10:52:00.548Z,1616
2016-03-10T10:53:00.566Z,1616
2016-03-10T10:54:00.568Z,1612
2016-03-10T10:55:00.571Z,1604
2016-03-10T10:56:00.606Z,1592
2016-03-10T10:57:00.577Z,1580
2016-03-10T10:58:00.595Z,1572
2016-03-10T10:59:00.629Z,1564
2016-03-10T11:00:00.600Z,1556
2016-03-10T11:01:00.619Z,1556
2016-03-10T11:02:00.637Z,1552
2016-03-10T11:03:00.640Z,1540
2016-03-10T11:04:00.628Z,1516
2016-03-10T11:05:00.630Z,1496
2016-03-10T11:06:00.633Z,1500
2016-03-10T11:07:00.650Z,1492
2016-03-10T11:08:00.653Z,1496
2016-03-10T11:09:00.655Z,1488
2016-03-10T11:10:00.503Z,1468
2016-03-10T11:11:00.661Z,1452
2016-03-10T11:12:00.663Z,1452
2016-03-10T11:13:00.682Z,1452
2016-03-10T11:14:00.716Z,1452
2016-03-10T11:15:00.688Z,1452
2016-03-10T11:16:00.706Z,1432
2016-03-10T11:17:00.693Z,1436
2016-03-10T11:18:00.696Z,1428
2016-03-10T11:19:00.714Z,1424
2016-03-10T11:20:00.716Z,1388
2016-03-10T11:21:00.719Z,1396
2016-03-10T11:22:00.721Z,1396
2016-03-10T11:23:00.740Z,1380
2016-03-10T11:24:00.743Z,1372
2016-03-10T11:25:00.746Z,1348
2016-03-10T11:26:00.748Z,1348
2016-03-10T11:27:00.767Z,1348
2016-03-10T11:28:00.770Z,1332
2016-03-10T11:29:00.773Z,1336
2016-03-10T11:30:00.775Z,1336
2016-03-10T11:31:00.778Z,1324
2016-03-10T11:32:00.781Z,1292
2016-03-10T11:33:00.783Z,1280
2016-03-10T11:34:00.786Z,1272
2016-03-10T11:35:00.789Z,1272
2016-03-10T11:36:00.806Z,1240
2016-03-10T11:37:00.825Z,1228
2016-03-10T11:38:00.828Z,1216
2016-03-10T11:39:00.847Z,1204
2016-03-10T11:40:00.833Z,1204
2016-03-10T11:41:00.836Z,1204
2016-03-10T11:42:00.838Z,1220
2016-03-10T11:43:00.841Z,1240
2016-03-10T11:44:00.860Z,1244
2016-03-10T11:45:00.846Z,1240
2016-03-10T11:46:00.865Z,1244
2016-03-10T11:47:00.852Z,1244
2016-03-10T11:48:00.870Z,1236
2016-03-10T11:49:00.873Z,1228
2016-03-10T11:50:00.876Z,1204
2016-03-10T11:51:00.894Z,1220
2016-03-10T11:52:00.584Z,1208
2016-03-10T11:53:00.915Z,1208
2016-03-10T11:54:00.902Z,1212
2016-03-10T11:55:00.921Z,1212
2016-03-10T11:56:00.907Z,1212
2016-03-10T11:57:01.520Z,1216
2016-03-10T11:58:00.929Z,1204
2016-03-10T11:59:00.916Z,1204
2016-03-10T12:00:00.934Z,1208
2016-03-10T12:01:00.968Z,1216
2016-03-10T12:02:00.940Z,1196
2016-03-10T12:03:00.942Z,1208
2016-03-10T12:04:00.992Z,1204
2016-03-10T12:05:00.962Z,1180
2016-03-10T12:06:00.966Z,1176
2016-03-10T12:07:00.967Z,1184
2016-03-10T12:08:00.987Z,1192
2016-03-10T12:09:00.974Z,1184
2016-03-10T12:10:00.991Z,1192
2016-03-10T12:11:01.011Z,1176
2016-03-10T12:12:00.997Z,1176
2016-03-10T12:13:01.015Z,1172
2016-03-10T12:14:01.018Z,1172
2016-03-10T12:15:01.021Z,1168
2016-03-10T12:16:01.024Z,1168
2016-03-10T12:17:01.026Z,1156
2016-03-10T12:18:01.061Z,1144
2016-03-10T12:19:01.047Z,1136
2016-03-10T12:20:01.066Z,1120
2016-03-10T12:21:01.038Z,1108
2016-03-10T12:22:01.055Z,1096
2016-03-10T12:23:01.058Z,1096
2016-03-10T12:24:01.061Z,1084
2016-03-10T12:25:01.095Z,1080
2016-03-10T12:26:01.066Z,1072
2016-03-10T12:27:01.069Z,1056
2016-03-10T12:28:01.087Z,1052
2016-03-10T12:29:01.090Z,1048
2016-03-10T12:30:01.093Z,1032
2016-03-10T12:31:01.112Z,1012
2016-03-10T12:32:01.114Z,1036
2016-03-10T12:33:01.101Z,1024
2016-03-10T12:34:01.120Z,1028
2016-03-10T12:35:01.122Z,1016
2016-03-10T12:36:01.140Z,1012
2016-03-10T12:37:01.143Z,1020
2016-03-10T12:38:01.145Z,1016
2016-03-10T12:39:01.148Z,1020
2016-03-10T12:40:01.151Z,1020
2016-03-10T12:41:01.185Z,1000
2016-03-10T12:42:01.156Z,988
2016-03-10T12:43:01.175Z,980
2016-03-10T12:44:01.162Z,984
2016-03-10T12:45:01.164Z,980
2016-03-10T12:46:01.198Z,972
2016-03-10T12:47:01.201Z,964
2016-03-10T12:48:01.188Z,948
2016-03-10T12:49:01.191Z,932
2016-03-10T12:50:01.208Z,928
2016-03-10T12:51:01.211Z,928
2016-03-10T12:52:01.214Z,928
2016-03-10T12:53:01.217Z,932
2016-03-10T12:54:01.220Z,928
2016-03-10T12:55:01.254Z,932
2016-03-10T12:56:01.225Z,932
2016-03-10T12:57:01.259Z,916
2016-03-10T12:58:01.246Z,912
2016-03-10T12:59:01.248Z,900
2016-03-10T13:00:01.267Z,908
2016-03-10T13:01:01.270Z,904
2016-03-10T13:02:01.288Z,896
2016-03-10T13:03:01.291Z,900
2016-03-10T13:04:01.294Z,884
2016-03-10T13:05:01.281Z,888
2016-03-10T13:06:01.284Z,884
2016-03-10T13:07:01.301Z,876
2016-03-10T13:08:01.304Z,876
2016-03-10T13:09:01.323Z,896
2016-03-10T13:10:01.310Z,904
2016-03-10T13:11:01.312Z,904
2016-03-10T13:12:01.331Z,908
2016-03-10T13:13:01.317Z,956
2016-03-10T13:14:01.374Z,1088
2016-03-10T13:15:01.346Z,1188
2016-03-10T13:16:29.586Z,1872
2016-03-10T13:17:01.383Z,2716
2016-03-10T13:18:01.369Z,5188
2016-03-10T13:19:01.372Z,5140
2016-03-10T13:20:01.360Z,3456
2016-03-10T13:21:01.393Z,2240
2016-03-10T13:22:01.396Z,1400
2016-03-10T13:23:01.383Z,1668
2016-03-10T13:24:01.260Z,3264
2016-03-10T13:25:01.388Z,3460
2016-03-10T13:26:01.422Z,7052
2016-03-10T13:27:01.676Z,6904
2016-03-10T13:28:01.412Z,2608
2016-03-10T13:29:01.290Z,1828
2016-03-10T13:30:01.464Z,2060
2016-03-10T13:31:01.435Z,4172
2016-03-10T13:32:01.438Z,6968
2016-03-10T13:33:01.456Z,3500
2016-03-10T13:34:01.444Z,2336
2016-03-10T13:35:01.477Z,3136
2016-03-10T13:36:01.464Z,2792
2016-03-10T13:37:01.484Z,2256
2016-03-10T13:38:01.485Z,2068
2016-03-10T13:39:01.488Z,2000
2016-03-10T13:40:01.506Z,2112
2016-03-10T13:41:01.509Z,4052
2016-03-10T13:42:01.356Z,5368
2016-03-10T13:43:01.515Z,2448
2016-03-10T13:44:01.517Z,1000
2016-03-10T13:45:01.567Z,876
2016-03-10T13:46:01.523Z,840
2016-03-10T13:47:01.572Z,828
2016-03-10T13:48:01.528Z,816
2016-03-10T13:49:01.577Z,800
2016-03-10T13:50:01.565Z,784
2016-03-10T13:51:01.551Z,768
2016-03-10T13:52:01.571Z,768
2016-03-10T13:53:01.588Z,756
2016-03-10T13:54:01.607Z,752
2016-03-10T13:55:01.610Z,752
2016-03-10T13:56:01.612Z,748
2016-03-10T13:57:01.599Z,744